sensor_id;sensor_type;location;lat;lon;timestamp;temperature;humidity
25128;DHT22;13107;51.304;6.866;2024-02-21T00:02:12;8.90;99.90
25128;DHT22;13107;51.304;6.866;2024-02-21T00:06:14;8.90;99.90
25128;DHT22;13107;51.304;6.866;2024-02-21T00:10:15;8.90;99.90
25128;DHT22;13107;51.304;6.866;2024-02-21T00:14:17;8.80;99.90
25128;DHT22;13107;51.304;6.866;2024-02-21T00:18:19;8.90;99.90
25128;DHT22;13107;51.304;6.866;2024-02-21T00:22:21;8.90;99.90
25128;DHT22;13107;51.304;6.866;2024-02-21T00:26:23;8.90;99.90
25128;DHT22;13107;51.304;6.866;2024-02-21T00:30:25;8.90;99.90
25128;DHT22;13107;51.304;6.866;2024-02-21T00:34:26;8.90;99.90
25128;DHT22;13107;51.304;6.866;2024-02-21T00:38:28;8.90;99.90
25128;DHT22;13107;51.304;6.866;2024-02-21T00:42:30;9.00;99.90
25128;DHT22;13107;51.304;6.866;2024-02-21T00:46:32;8.90;99.90
25128;DHT22;13107;51.304;6.866;2024-02-21T00:50:34;8.90;99.90
25128;DHT22;13107;51.304;6.866;2024-02-21T00:54:36;8.90;99.90
25128;DHT22;13107;51.304;6.866;2024-02-21T00:58:57;8.90;99.90
25128;DHT22;13107;51.304;6.866;2024-02-21T01:02:59;8.90;99.90
25128;DHT22;13107;51.304;6.866;2024-02-21T01:07:01;8.80;99.90
25128;DHT22;13107;51.304;6.866;2024-02-21T01:11:03;8.90;99.90
25128;DHT22;13107;51.304;6.866;2024-02-21T01:15:05;8.80;99.90
25128;DHT22;13107;51.304;6.866;2024-02-21T01:19:07;8.90;99.90
25128;DHT22;13107;51.304;6.866;2024-02-21T01:23:08;8.90;99.90
25128;DHT22;13107;51.304;6.866;2024-02-21T01:27:10;8.80;99.90
25128;DHT22;13107;51.304;6.866;2024-02-21T01:31:12;8.90;99.90
25128;DHT22;13107;51.304;6.866;2024-02-21T01:35:14;8.90;99.90
25128;DHT22;13107;51.304;6.866;2024-02-21T01:39:16;8.90;99.90
25128;DHT22;13107;51.304;6.866;2024-02-21T01:43:20;8.90;99.90
25128;DHT22;13107;51.304;6.866;2024-02-21T01:47:22;8.80;99.90
25128;DHT22;13107;51.304;6.866;2024-02-21T01:51:24;8.80;99.90
25128;DHT22;13107;51.304;6.866;2024-02-21T01:55:26;8.80;99.90
25128;DHT22;13107;51.304;6.866;2024-02-21T01:59:28;8.80;99.90
25128;DHT22;13107;51.304;6.866;2024-02-21T02:03:31;8.80;99.90
25128;DHT22;13107;51.304;6.866;2024-02-21T02:07:33;8.80;99.90
25128;DHT22;13107;51.304;6.866;2024-02-21T02:11:35;8.80;99.90
25128;DHT22;13107;51.304;6.866;2024-02-21T02:15:41;8.80;99.90
25128;DHT22;13107;51.304;6.866;2024-02-21T02:19:43;8.80;99.90
25128;DHT22;13107;51.304;6.866;2024-02-21T02:23:45;8.80;99.90
25128;DHT22;13107;51.304;6.866;2024-02-21T02:27:47;8.80;99.90
25128;DHT22;13107;51.304;6.866;2024-02-21T02:31:49;8.80;99.90
25128;DHT22;13107;51.304;6.866;2024-02-21T02:35:51;8.80;99.90
25128;DHT22;13107;51.304;6.866;2024-02-21T02:39:53;8.80;99.90
25128;DHT22;13107;51.304;6.866;2024-02-21T02:43:54;8.80;99.90
25128;DHT22;13107;51.304;6.866;2024-02-21T02:47:56;8.80;99.90
25128;DHT22;13107;51.304;6.866;2024-02-21T02:51:59;8.80;99.90
25128;DHT22;13107;51.304;6.866;2024-02-21T02:56:00;8.80;99.90
25128;DHT22;13107;51.304;6.866;2024-02-21T03:00:04;8.70;99.90
25128;DHT22;13107;51.304;6.866;2024-02-21T03:04:06;8.90;99.90
25128;DHT22;13107;51.304;6.866;2024-02-21T03:08:07;8.80;99.90
25128;DHT22;13107;51.304;6.866;2024-02-21T03:12:09;8.80;99.90
25128;DHT22;13107;51.304;6.866;2024-02-21T03:16:11;8.70;99.90
25128;DHT22;13107;51.304;6.866;2024-02-21T03:20:13;8.70;99.90
25128;DHT22;13107;51.304;6.866;2024-02-21T03:24:16;8.70;99.90
25128;DHT22;13107;51.304;6.866;2024-02-21T03:28:18;8.70;99.90
25128;DHT22;13107;51.304;6.866;2024-02-21T03:32:19;8.70;99.90
25128;DHT22;13107;51.304;6.866;2024-02-21T03:36:21;8.70;99.90
25128;DHT22;13107;51.304;6.866;2024-02-21T03:40:23;8.70;99.90
25128;DHT22;13107;51.304;6.866;2024-02-21T03:44:25;8.60;99.90
25128;DHT22;13107;51.304;6.866;2024-02-21T03:48:26;8.70;99.90
25128;DHT22;13107;51.304;6.866;2024-02-21T03:52:28;8.70;99.90
25128;DHT22;13107;51.304;6.866;2024-02-21T03:56:30;8.70;99.90
25128;DHT22;13107;51.304;6.866;2024-02-21T04:00:32;8.70;99.90
25128;DHT22;13107;51.304;6.866;2024-02-21T04:04:36;8.70;99.90
25128;DHT22;13107;51.304;6.866;2024-02-21T04:08:39;8.80;99.90
25128;DHT22;13107;51.304;6.866;2024-02-21T04:12:40;8.70;99.90
25128;DHT22;13107;51.304;6.866;2024-02-21T04:16:42;8.70;99.90
25128;DHT22;13107;51.304;6.866;2024-02-21T04:20:44;8.70;99.90
25128;DHT22;13107;51.304;6.866;2024-02-21T04:24:46;8.70;99.90
25128;DHT22;13107;51.304;6.866;2024-02-21T04:28:48;8.70;99.90
25128;DHT22;13107;51.304;6.866;2024-02-21T04:32:50;8.70;99.90
25128;DHT22;13107;51.304;6.866;2024-02-21T04:36:51;8.70;99.90
25128;DHT22;13107;51.304;6.866;2024-02-21T04:40:53;8.70;99.90
25128;DHT22;13107;51.304;6.866;2024-02-21T04:44:55;8.70;99.90
25128;DHT22;13107;51.304;6.866;2024-02-21T04:48:57;8.70;99.90
25128;DHT22;13107;51.304;6.866;2024-02-21T04:52:58;8.70;99.90
25128;DHT22;13107;51.304;6.866;2024-02-21T04:57:00;8.70;99.90
25128;DHT22;13107;51.304;6.866;2024-02-21T05:01:02;8.70;99.90
25128;DHT22;13107;51.304;6.866;2024-02-21T05:05:04;8.70;99.90
25128;DHT22;13107;51.304;6.866;2024-02-21T05:09:07;8.70;99.90
25128;DHT22;13107;51.304;6.866;2024-02-21T05:13:10;8.60;99.90
25128;DHT22;13107;51.304;6.866;2024-02-21T05:17:12;8.70;99.90
25128;DHT22;13107;51.304;6.866;2024-02-21T05:21:14;8.60;99.90
25128;DHT22;13107;51.304;6.866;2024-02-21T05:25:15;8.60;99.90
25128;DHT22;13107;51.304;6.866;2024-02-21T05:29:17;8.60;99.90
25128;DHT22;13107;51.304;6.866;2024-02-21T05:33:19;8.60;99.90
25128;DHT22;13107;51.304;6.866;2024-02-21T05:37:23;8.60;99.90
25128;DHT22;13107;51.304;6.866;2024-02-21T05:41:25;8.60;99.90
25128;DHT22;13107;51.304;6.866;2024-02-21T05:45:27;8.60;99.90
25128;DHT22;13107;51.304;6.866;2024-02-21T05:49:28;8.60;99.90
25128;DHT22;13107;51.304;6.866;2024-02-21T05:53:30;8.60;99.90
25128;DHT22;13107;51.304;6.866;2024-02-21T05:57:32;8.70;99.90
25128;DHT22;13107;51.304;6.866;2024-02-21T06:01:34;8.70;99.90
25128;DHT22;13107;51.304;6.866;2024-02-21T06:05:37;8.70;99.90
25128;DHT22;13107;51.304;6.866;2024-02-21T06:09:40;8.60;99.90
25128;DHT22;13107;51.304;6.866;2024-02-21T06:13:41;8.60;99.90
25128;DHT22;13107;51.304;6.866;2024-02-21T06:17:43;8.60;99.90
25128;DHT22;13107;51.304;6.866;2024-02-21T06:21:45;8.70;99.90
25128;DHT22;13107;51.304;6.866;2024-02-21T06:25:47;8.60;99.90
25128;DHT22;13107;51.304;6.866;2024-02-21T06:29:49;8.60;99.90
25128;DHT22;13107;51.304;6.866;2024-02-21T06:33:51;8.70;99.90
25128;DHT22;13107;51.304;6.866;2024-02-21T06:37:53;8.60;99.90
25128;DHT22;13107;51.304;6.866;2024-02-21T06:41:55;8.70;99.90
25128;DHT22;13107;51.304;6.866;2024-02-21T06:45:59;8.70;99.90
25128;DHT22;13107;51.304;6.866;2024-02-21T06:50:01;8.70;99.90
25128;DHT22;13107;51.304;6.866;2024-02-21T06:54:04;8.70;99.90
25128;DHT22;13107;51.304;6.866;2024-02-21T06:58:06;8.70;99.90
25128;DHT22;13107;51.304;6.866;2024-02-21T07:02:13;8.70;99.90
25128;DHT22;13107;51.304;6.866;2024-02-21T07:06:15;8.70;99.90
25128;DHT22;13107;51.304;6.866;2024-02-21T07:10:17;8.70;99.90
25128;DHT22;13107;51.304;6.866;2024-02-21T07:14:18;8.80;99.90
25128;DHT22;13107;51.304;6.866;2024-02-21T07:18:20;8.80;99.90
25128;DHT22;13107;51.304;6.866;2024-02-21T07:22:22;8.80;99.90
25128;DHT22;13107;51.304;6.866;2024-02-21T07:26:24;8.80;99.90
25128;DHT22;13107;51.304;6.866;2024-02-21T07:30:26;8.80;99.90
25128;DHT22;13107;51.304;6.866;2024-02-21T07:34:28;8.90;99.90
25128;DHT22;13107;51.304;6.866;2024-02-21T07:38:31;8.80;99.90
25128;DHT22;13107;51.304;6.866;2024-02-21T07:42:32;8.80;99.90
25128;DHT22;13107;51.304;6.866;2024-02-21T07:46:34;8.90;99.90
25128;DHT22;13107;51.304;6.866;2024-02-21T07:50:36;8.90;99.90
25128;DHT22;13107;51.304;6.866;2024-02-21T07:54:39;8.90;99.90
25128;DHT22;13107;51.304;6.866;2024-02-21T07:58:41;8.90;99.90
25128;DHT22;13107;51.304;6.866;2024-02-21T08:02:43;8.90;99.90
25128;DHT22;13107;51.304;6.866;2024-02-21T08:06:45;8.90;99.90
25128;DHT22;13107;51.304;6.866;2024-02-21T08:10:50;8.80;99.90
25128;DHT22;13107;51.304;6.866;2024-02-21T08:14:52;8.80;99.90
25128;DHT22;13107;51.304;6.866;2024-02-21T08:18:53;8.80;99.90
25128;DHT22;13107;51.304;6.866;2024-02-21T08:22:55;8.80;99.90
25128;DHT22;13107;51.304;6.866;2024-02-21T08:26:57;8.80;99.90
25128;DHT22;13107;51.304;6.866;2024-02-21T08:30:59;8.80;99.90
25128;DHT22;13107;51.304;6.866;2024-02-21T08:35:01;8.80;99.90
25128;DHT22;13107;51.304;6.866;2024-02-21T08:39:03;8.80;99.90
25128;DHT22;13107;51.304;6.866;2024-02-21T08:43:06;8.80;99.90
25128;DHT22;13107;51.304;6.866;2024-02-21T08:47:07;8.80;99.90
25128;DHT22;13107;51.304;6.866;2024-02-21T08:51:11;8.80;99.90
25128;DHT22;13107;51.304;6.866;2024-02-21T08:55:13;8.70;99.90
25128;DHT22;13107;51.304;6.866;2024-02-21T08:59:15;8.60;99.90
25128;DHT22;13107;51.304;6.866;2024-02-21T09:03:17;8.60;99.90
25128;DHT22;13107;51.304;6.866;2024-02-21T09:07:21;8.70;99.90
25128;DHT22;13107;51.304;6.866;2024-02-21T09:11:23;8.80;99.90
25128;DHT22;13107;51.304;6.866;2024-02-21T09:15:25;8.70;99.90
25128;DHT22;13107;51.304;6.866;2024-02-21T09:19:26;8.80;99.90
25128;DHT22;13107;51.304;6.866;2024-02-21T09:23:28;8.80;99.90
25128;DHT22;13107;51.304;6.866;2024-02-21T09:27:30;8.80;99.90
25128;DHT22;13107;51.304;6.866;2024-02-21T09:31:32;8.90;99.90
25128;DHT22;13107;51.304;6.866;2024-02-21T09:35:34;9.10;99.90
25128;DHT22;13107;51.304;6.866;2024-02-21T09:39:35;9.10;99.90
25128;DHT22;13107;51.304;6.866;2024-02-21T09:43:40;9.20;99.90
25128;DHT22;13107;51.304;6.866;2024-02-21T09:52:22;9.20;99.90
25128;DHT22;13107;51.304;6.866;2024-02-21T09:56:26;9.20;99.90
25128;DHT22;13107;51.304;6.866;2024-02-21T10:00:27;9.30;99.90
25128;DHT22;13107;51.304;6.866;2024-02-21T10:04:30;9.40;99.90
25128;DHT22;13107;51.304;6.866;2024-02-21T10:08:32;9.40;99.90
25128;DHT22;13107;51.304;6.866;2024-02-21T10:12:34;9.40;99.90
25128;DHT22;13107;51.304;6.866;2024-02-21T10:16:36;9.50;99.90
25128;DHT22;13107;51.304;6.866;2024-02-21T10:20:39;9.50;99.90
25128;DHT22;13107;51.304;6.866;2024-02-21T10:24:41;9.50;99.90
25128;DHT22;13107;51.304;6.866;2024-02-21T10:28:43;9.50;99.90
25128;DHT22;13107;51.304;6.866;2024-02-21T10:32:54;9.50;99.90
25128;DHT22;13107;51.304;6.866;2024-02-21T10:37:03;9.50;99.90
25128;DHT22;13107;51.304;6.866;2024-02-21T10:41:06;9.60;99.90
25128;DHT22;13107;51.304;6.866;2024-02-21T10:45:08;9.70;99.90
25128;DHT22;13107;51.304;6.866;2024-02-21T10:49:10;9.90;99.90
25128;DHT22;13107;51.304;6.866;2024-02-21T10:53:32;9.90;99.90
25128;DHT22;13107;51.304;6.866;2024-02-21T10:57:42;9.80;99.90
25128;DHT22;13107;51.304;6.866;2024-02-21T11:01:45;9.90;99.90
25128;DHT22;13107;51.304;6.866;2024-02-21T11:05:47;10.00;99.90
25128;DHT22;13107;51.304;6.866;2024-02-21T11:09:53;10.00;99.90
25128;DHT22;13107;51.304;6.866;2024-02-21T11:14:09;10.10;99.90
25128;DHT22;13107;51.304;6.866;2024-02-21T11:18:11;10.30;99.90
25128;DHT22;13107;51.304;6.866;2024-02-21T11:22:24;10.50;99.90
25128;DHT22;13107;51.304;6.866;2024-02-21T11:26:31;10.70;99.90
25128;DHT22;13107;51.304;6.866;2024-02-21T11:30:37;10.90;99.90
25128;DHT22;13107;51.304;6.866;2024-02-21T11:34:39;10.90;99.90
25128;DHT22;13107;51.304;6.866;2024-02-21T11:38:41;10.90;99.90
25128;DHT22;13107;51.304;6.866;2024-02-21T11:42:43;10.80;99.90
25128;DHT22;13107;51.304;6.866;2024-02-21T11:46:45;10.70;99.90
25128;DHT22;13107;51.304;6.866;2024-02-21T11:50:55;10.50;99.90
25128;DHT22;13107;51.304;6.866;2024-02-21T11:54:57;10.60;99.90
25128;DHT22;13107;51.304;6.866;2024-02-21T11:59:06;10.80;99.90
25128;DHT22;13107;51.304;6.866;2024-02-21T12:03:08;10.80;99.90
25128;DHT22;13107;51.304;6.866;2024-02-21T12:07:10;10.80;99.90
25128;DHT22;13107;51.304;6.866;2024-02-21T12:11:17;10.60;99.90
25128;DHT22;13107;51.304;6.866;2024-02-21T12:15:20;10.70;99.90
25128;DHT22;13107;51.304;6.866;2024-02-21T12:19:22;10.90;99.90
25128;DHT22;13107;51.304;6.866;2024-02-21T12:23:27;10.80;99.90
25128;DHT22;13107;51.304;6.866;2024-02-21T12:27:28;10.90;99.90
25128;DHT22;13107;51.304;6.866;2024-02-21T12:31:31;11.00;99.90
25128;DHT22;13107;51.304;6.866;2024-02-21T12:35:33;11.00;99.90
25128;DHT22;13107;51.304;6.866;2024-02-21T12:39:36;11.00;99.90
25128;DHT22;13107;51.304;6.866;2024-02-21T12:43:40;11.00;99.90
25128;DHT22;13107;51.304;6.866;2024-02-21T12:47:41;11.20;99.90
25128;DHT22;13107;51.304;6.866;2024-02-21T12:51:43;11.20;99.90
25128;DHT22;13107;51.304;6.866;2024-02-21T12:55:51;11.20;99.90
25128;DHT22;13107;51.304;6.866;2024-02-21T12:59:52;11.10;99.90
25128;DHT22;13107;51.304;6.866;2024-02-21T13:03:54;11.30;99.90
25128;DHT22;13107;51.304;6.866;2024-02-21T13:08:00;11.40;99.90
25128;DHT22;13107;51.304;6.866;2024-02-21T13:12:02;11.50;99.90
25128;DHT22;13107;51.304;6.866;2024-02-21T13:16:04;11.50;99.90
25128;DHT22;13107;51.304;6.866;2024-02-21T13:20:07;11.80;99.90
25128;DHT22;13107;51.304;6.866;2024-02-21T13:24:10;12.00;99.90
25128;DHT22;13107;51.304;6.866;2024-02-21T13:28:12;12.10;99.90
25128;DHT22;13107;51.304;6.866;2024-02-21T13:32:14;12.10;99.90
25128;DHT22;13107;51.304;6.866;2024-02-21T13:36:17;12.00;99.90
25128;DHT22;13107;51.304;6.866;2024-02-21T13:40:19;12.00;99.90
25128;DHT22;13107;51.304;6.866;2024-02-21T13:44:21;11.90;99.90
25128;DHT22;13107;51.304;6.866;2024-02-21T13:48:23;11.70;99.90
25128;DHT22;13107;51.304;6.866;2024-02-21T13:52:25;11.60;99.90
25128;DHT22;13107;51.304;6.866;2024-02-21T13:56:30;11.60;99.90
25128;DHT22;13107;51.304;6.866;2024-02-21T14:00:32;11.70;99.90
25128;DHT22;13107;51.304;6.866;2024-02-21T14:04:37;11.60;99.90
25128;DHT22;13107;51.304;6.866;2024-02-21T14:08:39;11.40;99.90
25128;DHT22;13107;51.304;6.866;2024-02-21T14:12:41;11.40;99.90
25128;DHT22;13107;51.304;6.866;2024-02-21T14:16:42;11.60;99.90
25128;DHT22;13107;51.304;6.866;2024-02-21T14:20:44;11.50;99.90
25128;DHT22;13107;51.304;6.866;2024-02-21T14:24:48;11.50;99.90
25128;DHT22;13107;51.304;6.866;2024-02-21T14:28:50;11.70;99.90
25128;DHT22;13107;51.304;6.866;2024-02-21T14:32:51;11.70;99.90
25128;DHT22;13107;51.304;6.866;2024-02-21T14:36:54;11.70;99.90
25128;DHT22;13107;51.304;6.866;2024-02-21T14:40:55;11.60;99.90
25128;DHT22;13107;51.304;6.866;2024-02-21T14:44:57;11.60;99.90
25128;DHT22;13107;51.304;6.866;2024-02-21T14:49:05;11.70;99.90
25128;DHT22;13107;51.304;6.866;2024-02-21T14:53:07;11.60;99.90
25128;DHT22;13107;51.304;6.866;2024-02-21T14:57:09;11.40;99.90
25128;DHT22;13107;51.304;6.866;2024-02-21T15:01:11;11.40;99.90
25128;DHT22;13107;51.304;6.866;2024-02-21T15:05:14;11.50;99.90
25128;DHT22;13107;51.304;6.866;2024-02-21T15:09:16;11.50;99.90
25128;DHT22;13107;51.304;6.866;2024-02-21T15:13:20;11.50;99.90
25128;DHT22;13107;51.304;6.866;2024-02-21T15:17:23;11.50;99.90
25128;DHT22;13107;51.304;6.866;2024-02-21T15:21:25;11.50;99.90
25128;DHT22;13107;51.304;6.866;2024-02-21T15:25:27;11.40;99.90
25128;DHT22;13107;51.304;6.866;2024-02-21T15:29:29;11.30;99.90
25128;DHT22;13107;51.304;6.866;2024-02-21T15:33:30;11.20;99.90
25128;DHT22;13107;51.304;6.866;2024-02-21T15:37:35;11.10;99.90
25128;DHT22;13107;51.304;6.866;2024-02-21T15:41:37;11.10;99.90
25128;DHT22;13107;51.304;6.866;2024-02-21T15:45:39;11.10;99.90
25128;DHT22;13107;51.304;6.866;2024-02-21T15:49:41;11.00;99.90
25128;DHT22;13107;51.304;6.866;2024-02-21T15:53:43;11.00;99.90
25128;DHT22;13107;51.304;6.866;2024-02-21T15:57:46;10.90;99.90
25128;DHT22;13107;51.304;6.866;2024-02-21T16:01:48;10.90;99.90
25128;DHT22;13107;51.304;6.866;2024-02-21T16:05:51;10.80;99.90
25128;DHT22;13107;51.304;6.866;2024-02-21T16:09:53;10.80;99.90
25128;DHT22;13107;51.304;6.866;2024-02-21T16:13:55;10.80;99.90
25128;DHT22;13107;51.304;6.866;2024-02-21T16:17:57;10.70;99.90
25128;DHT22;13107;51.304;6.866;2024-02-21T16:22:00;10.60;99.90
25128;DHT22;13107;51.304;6.866;2024-02-21T16:26:02;10.60;99.90
25128;DHT22;13107;51.304;6.866;2024-02-21T16:30:04;10.50;99.90
25128;DHT22;13107;51.304;6.866;2024-02-21T16:34:13;10.40;99.90
25128;DHT22;13107;51.304;6.866;2024-02-21T16:38:15;10.30;99.90
25128;DHT22;13107;51.304;6.866;2024-02-21T16:42:17;10.20;99.90
25128;DHT22;13107;51.304;6.866;2024-02-21T16:46:19;10.00;99.90
25128;DHT22;13107;51.304;6.866;2024-02-21T16:50:22;9.80;99.90
25128;DHT22;13107;51.304;6.866;2024-02-21T16:54:24;9.70;99.90
25128;DHT22;13107;51.304;6.866;2024-02-21T16:58:29;9.60;99.90
25128;DHT22;13107;51.304;6.866;2024-02-21T17:02:40;9.40;99.90
25128;DHT22;13107;51.304;6.866;2024-02-21T17:06:56;9.40;99.90
25128;DHT22;13107;51.304;6.866;2024-02-21T17:10:58;9.30;99.90
25128;DHT22;13107;51.304;6.866;2024-02-21T17:15:00;9.30;99.90
25128;DHT22;13107;51.304;6.866;2024-02-21T17:19:02;9.30;99.90
25128;DHT22;13107;51.304;6.866;2024-02-21T17:23:06;9.30;99.90
25128;DHT22;13107;51.304;6.866;2024-02-21T17:27:08;9.10;99.90
25128;DHT22;13107;51.304;6.866;2024-02-21T17:31:10;9.10;99.90
25128;DHT22;13107;51.304;6.866;2024-02-21T17:35:12;9.00;99.90
25128;DHT22;13107;51.304;6.866;2024-02-21T17:39:15;8.90;99.90
25128;DHT22;13107;51.304;6.866;2024-02-21T17:43:19;8.80;99.90
25128;DHT22;13107;51.304;6.866;2024-02-21T17:47:22;8.80;99.90
25128;DHT22;13107;51.304;6.866;2024-02-21T17:51:24;8.70;99.90
25128;DHT22;13107;51.304;6.866;2024-02-21T17:55:26;8.70;99.90
25128;DHT22;13107;51.304;6.866;2024-02-21T17:59:28;8.70;99.90
25128;DHT22;13107;51.304;6.866;2024-02-21T18:03:30;8.70;99.90
25128;DHT22;13107;51.304;6.866;2024-02-21T18:07:32;8.60;99.90
25128;DHT22;13107;51.304;6.866;2024-02-21T18:11:34;8.50;99.90
25128;DHT22;13107;51.304;6.866;2024-02-21T18:15:36;8.50;99.90
25128;DHT22;13107;51.304;6.866;2024-02-21T18:19:38;8.30;99.90
25128;DHT22;13107;51.304;6.866;2024-02-21T18:23:40;8.20;99.90
25128;DHT22;13107;51.304;6.866;2024-02-21T18:27:41;8.10;99.90
25128;DHT22;13107;51.304;6.866;2024-02-21T18:31:43;8.20;99.90
25128;DHT22;13107;51.304;6.866;2024-02-21T18:35:45;8.00;99.90
25128;DHT22;13107;51.304;6.866;2024-02-21T18:39:47;8.00;99.90
25128;DHT22;13107;51.304;6.866;2024-02-21T18:43:49;7.90;99.90
25128;DHT22;13107;51.304;6.866;2024-02-21T18:47:51;7.90;99.90
25128;DHT22;13107;51.304;6.866;2024-02-21T18:51:55;7.90;99.90
25128;DHT22;13107;51.304;6.866;2024-02-21T18:55:57;7.80;99.90
25128;DHT22;13107;51.304;6.866;2024-02-21T18:59:59;7.80;99.90
25128;DHT22;13107;51.304;6.866;2024-02-21T19:04:01;7.80;99.90
25128;DHT22;13107;51.304;6.866;2024-02-21T19:08:03;7.80;99.90
25128;DHT22;13107;51.304;6.866;2024-02-21T19:12:05;7.80;99.90
25128;DHT22;13107;51.304;6.866;2024-02-21T19:16:08;7.80;99.90
25128;DHT22;13107;51.304;6.866;2024-02-21T19:20:12;7.70;99.90
25128;DHT22;13107;51.304;6.866;2024-02-21T19:24:14;7.70;99.90
25128;DHT22;13107;51.304;6.866;2024-02-21T19:28:16;7.80;99.90
25128;DHT22;13107;51.304;6.866;2024-02-21T19:32:19;8.00;99.90
25128;DHT22;13107;51.304;6.866;2024-02-21T19:36:23;8.10;99.90
25128;DHT22;13107;51.304;6.866;2024-02-21T19:40:24;7.90;99.90
25128;DHT22;13107;51.304;6.866;2024-02-21T19:44:27;7.80;99.90
25128;DHT22;13107;51.304;6.866;2024-02-21T19:48:29;7.80;99.90
25128;DHT22;13107;51.304;6.866;2024-02-21T19:52:31;7.70;99.90
25128;DHT22;13107;51.304;6.866;2024-02-21T19:56:33;7.70;99.90
25128;DHT22;13107;51.304;6.866;2024-02-21T20:00:35;7.70;99.90
25128;DHT22;13107;51.304;6.866;2024-02-21T20:04:37;7.70;99.90
25128;DHT22;13107;51.304;6.866;2024-02-21T20:08:39;7.70;99.90
25128;DHT22;13107;51.304;6.866;2024-02-21T20:12:41;7.70;99.90
25128;DHT22;13107;51.304;6.866;2024-02-21T20:16:44;7.80;99.90
25128;DHT22;13107;51.304;6.866;2024-02-21T20:20:48;7.70;99.90
25128;DHT22;13107;51.304;6.866;2024-02-21T20:24:50;7.70;99.90
25128;DHT22;13107;51.304;6.866;2024-02-21T20:28:52;7.70;99.90
25128;DHT22;13107;51.304;6.866;2024-02-21T20:32:54;7.70;99.90
25128;DHT22;13107;51.304;6.866;2024-02-21T20:36:57;7.80;99.90
25128;DHT22;13107;51.304;6.866;2024-02-21T20:40:59;7.80;99.90
25128;DHT22;13107;51.304;6.866;2024-02-21T20:45:01;7.80;99.90
25128;DHT22;13107;51.304;6.866;2024-02-21T20:49:03;7.80;99.90
25128;DHT22;13107;51.304;6.866;2024-02-21T20:53:05;7.80;99.90
25128;DHT22;13107;51.304;6.866;2024-02-21T20:57:06;7.80;99.90
25128;DHT22;13107;51.304;6.866;2024-02-21T21:01:08;7.80;99.90
25128;DHT22;13107;51.304;6.866;2024-02-21T21:05:10;7.80;99.90
25128;DHT22;13107;51.304;6.866;2024-02-21T21:09:12;7.80;99.90
25128;DHT22;13107;51.304;6.866;2024-02-21T21:13:15;7.80;99.90
25128;DHT22;13107;51.304;6.866;2024-02-21T21:17:31;7.80;99.90
25128;DHT22;13107;51.304;6.866;2024-02-21T21:21:33;7.80;99.90
25128;DHT22;13107;51.304;6.866;2024-02-21T21:25:35;7.80;99.90
25128;DHT22;13107;51.304;6.866;2024-02-21T21:29:39;7.80;99.90
25128;DHT22;13107;51.304;6.866;2024-02-21T21:33:40;7.80;99.90
25128;DHT22;13107;51.304;6.866;2024-02-21T21:37:42;7.80;99.90
25128;DHT22;13107;51.304;6.866;2024-02-21T21:41:44;7.80;99.90
25128;DHT22;13107;51.304;6.866;2024-02-21T21:45:46;7.80;99.90
25128;DHT22;13107;51.304;6.866;2024-02-21T21:49:48;7.80;99.90
25128;DHT22;13107;51.304;6.866;2024-02-21T21:53:50;7.90;99.90
25128;DHT22;13107;51.304;6.866;2024-02-21T21:57:52;7.90;99.90
25128;DHT22;13107;51.304;6.866;2024-02-21T22:01:53;7.80;99.90
25128;DHT22;13107;51.304;6.866;2024-02-21T22:05:56;7.80;99.90
25128;DHT22;13107;51.304;6.866;2024-02-21T22:09:58;7.80;99.90
25128;DHT22;13107;51.304;6.866;2024-02-21T22:14:00;7.90;99.90
25128;DHT22;13107;51.304;6.866;2024-02-21T22:18:04;7.80;99.90
25128;DHT22;13107;51.304;6.866;2024-02-21T22:22:05;7.80;99.90
25128;DHT22;13107;51.304;6.866;2024-02-21T22:26:07;7.80;99.90
25128;DHT22;13107;51.304;6.866;2024-02-21T22:30:11;7.80;99.90
25128;DHT22;13107;51.304;6.866;2024-02-21T22:34:13;7.80;99.90
25128;DHT22;13107;51.304;6.866;2024-02-21T22:38:15;7.90;99.90
25128;DHT22;13107;51.304;6.866;2024-02-21T22:42:16;7.90;99.90
25128;DHT22;13107;51.304;6.866;2024-02-21T22:46:18;7.80;99.90
25128;DHT22;13107;51.304;6.866;2024-02-21T22:50:20;7.80;99.90
25128;DHT22;13107;51.304;6.866;2024-02-21T22:54:23;7.80;99.90
25128;DHT22;13107;51.304;6.866;2024-02-21T22:58:26;7.80;99.90
25128;DHT22;13107;51.304;6.866;2024-02-21T23:02:28;7.80;99.90
25128;DHT22;13107;51.304;6.866;2024-02-21T23:06:29;7.90;99.90
25128;DHT22;13107;51.304;6.866;2024-02-21T23:10:31;7.80;99.90
25128;DHT22;13107;51.304;6.866;2024-02-21T23:14:35;7.90;99.90
25128;DHT22;13107;51.304;6.866;2024-02-21T23:18:37;7.90;99.90
25128;DHT22;13107;51.304;6.866;2024-02-21T23:22:39;7.90;99.90
25128;DHT22;13107;51.304;6.866;2024-02-21T23:26:43;7.90;99.90
25128;DHT22;13107;51.304;6.866;2024-02-21T23:30:45;7.90;99.90
25128;DHT22;13107;51.304;6.866;2024-02-21T23:34:46;7.90;99.90
25128;DHT22;13107;51.304;6.866;2024-02-21T23:38:48;7.90;99.90
25128;DHT22;13107;51.304;6.866;2024-02-21T23:42:50;8.00;99.90
25128;DHT22;13107;51.304;6.866;2024-02-21T23:46:52;7.90;99.90
25128;DHT22;13107;51.304;6.866;2024-02-21T23:50:54;7.90;99.90
25128;DHT22;13107;51.304;6.866;2024-02-21T23:54:56;8.00;99.90
25128;DHT22;13107;51.304;6.866;2024-02-21T23:58:58;8.00;99.90
